createdAt,value
2022-07-28T00:01:39.666Z,1.00
2022-07-28T00:04:28.442Z,1.00
2022-07-28T00:07:17.201Z,1.00
2022-07-28T00:10:06.824Z,1.00
2022-07-28T00:12:55.543Z,1.00
2022-07-28T00:15:44.211Z,1.00
2022-07-28T00:18:34.344Z,1.00
2022-07-28T00:21:24.479Z,1.00
2022-07-28T00:24:13.857Z,1.00
2022-07-28T00:27:02.755Z,1.00
2022-07-28T00:29:51.808Z,1.00
2022-07-28T00:32:40.518Z,1.00
2022-07-28T00:35:31.019Z,1.00
2022-07-28T00:38:20.459Z,1.00
2022-07-28T00:41:14.597Z,1.00
2022-07-28T00:44:03.679Z,1.00
2022-07-28T00:46:52.471Z,1.00
2022-07-28T00:49:41.597Z,1.00
2022-07-28T00:52:32.058Z,1.00
2022-07-28T00:55:21.984Z,1.00
2022-07-28T00:58:10.747Z,1.00
2022-07-28T01:00:59.848Z,1.00
2022-07-28T01:03:55.163Z,1.00
2022-07-28T01:07:09.826Z,1.00
2022-07-28T01:10:07.694Z,1.00
2022-07-28T01:13:03.927Z,1.00
2022-07-28T01:15:57.667Z,1.00
2022-07-28T01:18:55.858Z,1.00
2022-07-28T01:21:46.880Z,1.00
2022-07-28T01:24:45.646Z,1.00
2022-07-28T01:27:52.581Z,1.00
2022-07-28T01:30:45.062Z,1.00
2022-07-28T01:33:39.610Z,1.00
2022-07-28T01:36:32.711Z,1.00
2022-07-28T01:39:23.405Z,1.00
2022-07-28T01:42:14.592Z,1.00
2022-07-28T01:45:04.572Z,1.00
2022-07-28T01:47:56.808Z,1.00
2022-07-28T01:50:47.857Z,1.00
2022-07-28T01:53:39.676Z,1.00
2022-07-28T01:56:30.733Z,1.00
2022-07-28T01:59:20.624Z,1.00
2022-07-28T02:02:11.736Z,1.00
2022-07-28T02:05:03.702Z,1.00
2022-07-28T02:07:53.525Z,1.00
2022-07-28T02:10:44.003Z,1.00
2022-07-28T02:13:33.756Z,1.00
2022-07-28T02:16:26.093Z,1.00
2022-07-28T02:19:17.073Z,1.00
2022-07-28T02:22:08.200Z,1.00
2022-07-28T02:24:57.303Z,1.00
2022-07-28T02:27:50.073Z,1.00
2022-07-28T02:30:49.302Z,1.00
2022-07-28T02:34:00.338Z,1.00
2022-07-28T02:36:52.213Z,1.00
2022-07-28T02:40:00.394Z,1.00
2022-07-28T02:42:51.011Z,1.00
2022-07-28T02:45:44.268Z,1.00
2022-07-28T02:48:37.119Z,1.00
2022-07-28T02:51:29.152Z,1.00
2022-07-28T02:54:19.235Z,1.00
2022-07-28T02:57:10.652Z,1.00
2022-07-28T03:00:00.125Z,1.00
2022-07-28T03:02:49.850Z,1.00
2022-07-28T03:05:39.026Z,1.00
2022-07-28T03:08:28.041Z,1.00
2022-07-28T03:11:16.732Z,1.00
2022-07-28T03:14:06.836Z,1.00
2022-07-28T03:16:55.867Z,1.00
2022-07-28T03:19:44.894Z,1.00
2022-07-28T03:22:33.633Z,1.00
2022-07-28T03:25:27.864Z,1.00
2022-07-28T03:28:21.231Z,1.00
2022-07-28T03:31:13.496Z,1.00
2022-07-28T03:34:02.639Z,1.70
2022-07-28T03:36:58.302Z,2.60
2022-07-28T03:39:48.991Z,3.50
2022-07-28T03:42:39.044Z,3.80
2022-07-28T03:45:28.456Z,4.20
2022-07-28T03:48:18.747Z,4.50
2022-07-28T03:51:07.453Z,4.60
2022-07-28T03:53:56.129Z,4.60
2022-07-28T03:56:44.834Z,4.60
2022-07-28T03:59:34.055Z,4.50
2022-07-28T04:02:22.793Z,5.10
2022-07-28T04:05:14.876Z,5.30
2022-07-28T04:08:03.570Z,5.80
2022-07-28T04:10:53.484Z,6.00
2022-07-28T04:13:42.190Z,6.00
2022-07-28T04:16:30.946Z,6.00
2022-07-28T04:19:19.691Z,6.40
2022-07-28T04:22:09.837Z,6.60
2022-07-28T04:24:58.772Z,6.40
2022-07-28T04:27:47.474Z,6.50
2022-07-28T04:30:39.987Z,6.70
2022-07-28T04:33:32.977Z,7.10
2022-07-28T04:36:21.744Z,7.10
2022-07-28T04:39:12.415Z,7.00
2022-07-28T04:42:01.148Z,6.80
2022-07-28T04:44:49.817Z,7.00
2022-07-28T04:47:38.584Z,7.60
2022-07-28T04:50:27.474Z,7.80
2022-07-28T04:53:16.821Z,8.10
2022-07-28T04:56:07.201Z,8.30
2022-07-28T04:58:55.866Z,8.60
2022-07-28T05:01:44.708Z,8.70
2022-07-28T05:04:33.561Z,8.50
2022-07-28T05:07:24.320Z,8.70
2022-07-28T05:10:13.893Z,8.60
2022-07-28T05:13:08.155Z,8.50
2022-07-28T05:15:56.894Z,8.60
2022-07-28T05:18:45.569Z,9.00
2022-07-28T05:21:34.268Z,9.10
2022-07-28T05:24:23.007Z,9.00
2022-07-28T05:27:12.902Z,8.60
2022-07-28T05:30:02.997Z,8.80
2022-07-28T05:32:53.932Z,8.70
2022-07-28T05:35:42.640Z,8.60
2022-07-28T05:38:32.821Z,8.40
2022-07-28T05:41:21.623Z,8.40
2022-07-28T05:44:10.391Z,7.70
2022-07-28T05:47:00.621Z,6.60
2022-07-28T05:49:49.255Z,6.20
2022-07-28T05:52:38.093Z,6.30
2022-07-28T05:55:27.066Z,5.70
2022-07-28T05:58:15.866Z,4.20
2022-07-28T06:01:05.091Z,3.40
2022-07-28T06:04:10.125Z,3.60
2022-07-28T06:07:03.925Z,3.20
2022-07-28T06:09:52.598Z,3.60
2022-07-28T06:12:42.182Z,3.20
2022-07-28T06:15:30.871Z,2.40
2022-07-28T06:18:19.646Z,2.50
2022-07-28T06:21:09.757Z,1.60
2022-07-28T06:23:58.430Z,2.40
2022-07-28T06:26:48.241Z,2.30
2022-07-28T06:29:37.108Z,1.80
2022-07-28T06:32:25.818Z,1.10
2022-07-28T06:35:16.718Z,2.50
2022-07-28T06:38:06.994Z,1.00
2022-07-28T06:40:56.359Z,1.00
2022-07-28T06:43:45.878Z,1.00
2022-07-28T06:46:34.602Z,1.00
2022-07-28T06:49:23.413Z,1.00
2022-07-28T06:52:12.935Z,1.00
2022-07-28T06:55:03.097Z,1.00
2022-07-28T06:57:53.358Z,1.00
2022-07-28T07:00:42.028Z,1.00
2022-07-28T07:03:30.831Z,1.00
2022-07-28T07:06:19.508Z,1.00
2022-07-28T07:09:08.238Z,1.00
2022-07-28T07:12:00.007Z,1.00
2022-07-28T07:14:49.225Z,1.00
2022-07-28T07:17:38.602Z,1.00
2022-07-28T07:20:28.224Z,1.00
2022-07-28T07:23:17.049Z,1.00
2022-07-28T07:26:05.757Z,1.00
2022-07-28T07:28:55.857Z,1.00
2022-07-28T07:31:44.682Z,1.00
2022-07-28T07:34:33.438Z,1.00
2022-07-28T07:37:22.350Z,1.00
2022-07-28T07:40:11.200Z,1.00
2022-07-28T07:42:59.926Z,1.00
2022-07-28T07:45:50.092Z,1.00
2022-07-28T07:48:38.949Z,1.00
2022-07-28T07:51:27.664Z,1.00
2022-07-28T07:54:16.774Z,1.00
2022-07-28T07:57:06.802Z,1.00
2022-07-28T07:59:55.478Z,1.00
2022-07-28T08:02:45.669Z,1.00
2022-07-28T08:05:35.910Z,1.00
2022-07-28T08:08:25.101Z,1.00
2022-07-28T08:11:13.911Z,1.00
2022-07-28T08:14:02.673Z,1.00
2022-07-28T08:16:51.365Z,1.00
2022-07-28T08:19:41.608Z,1.00
2022-07-28T08:22:30.560Z,1.00
2022-07-28T08:25:19.572Z,1.00
2022-07-28T08:28:08.298Z,1.00
2022-07-28T08:30:57.017Z,1.00
2022-07-28T08:33:54.080Z,1.00
2022-07-28T08:36:45.008Z,1.00
2022-07-28T08:39:36.187Z,1.00
2022-07-28T08:42:35.600Z,1.00
2022-07-28T08:45:27.560Z,1.00
2022-07-28T08:48:22.570Z,1.00
2022-07-28T08:51:12.245Z,1.00
2022-07-28T08:54:04.559Z,1.00
2022-07-28T08:56:53.637Z,1.00
2022-07-28T08:59:42.647Z,1.00
2022-07-28T09:02:32.993Z,1.00
2022-07-28T09:05:22.978Z,1.00
2022-07-28T09:08:12.997Z,1.00
2022-07-28T09:11:03.112Z,1.00
2022-07-28T09:13:54.040Z,1.00
2022-07-28T09:16:43.223Z,1.00
2022-07-28T09:19:34.312Z,1.00
2022-07-28T09:22:24.652Z,1.00
2022-07-28T09:25:20.322Z,1.00
2022-07-28T09:28:12.885Z,1.00
2022-07-28T09:31:08.945Z,1.00
2022-07-28T09:34:01.534Z,1.00
2022-07-28T09:36:51.522Z,1.00
2022-07-28T09:39:40.331Z,1.00
2022-07-28T09:42:46.878Z,1.00
2022-07-28T09:45:37.073Z,1.00
2022-07-28T09:48:25.946Z,1.00
2022-07-28T09:51:15.277Z,1.00
2022-07-28T09:54:12.085Z,1.00
2022-07-28T09:57:01.093Z,1.00
2022-07-28T09:59:52.093Z,1.00
2022-07-28T10:02:51.230Z,1.00
2022-07-28T10:05:44.552Z,1.00
2022-07-28T10:08:48.015Z,1.00
2022-07-28T10:11:41.529Z,1.00
2022-07-28T10:14:33.977Z,1.00
2022-07-28T10:17:40.198Z,1.00
2022-07-28T10:20:31.456Z,1.00
2022-07-28T10:23:21.453Z,1.00
2022-07-28T10:26:13.136Z,1.00
2022-07-28T10:29:06.639Z,1.00
2022-07-28T10:31:59.014Z,1.00
2022-07-28T10:35:01.053Z,1.00
2022-07-28T10:37:59.905Z,1.00
2022-07-28T10:40:49.583Z,1.00
2022-07-28T10:43:42.577Z,1.00
2022-07-28T10:46:32.754Z,1.00
2022-07-28T10:49:22.406Z,1.00
2022-07-28T10:55:39.037Z,1.00
2022-07-28T10:58:39.325Z,1.00
2022-07-28T11:01:53.102Z,1.00
2022-07-28T11:04:59.274Z,1.00
2022-07-28T11:07:48.195Z,1.00
2022-07-28T11:10:51.868Z,1.00
2022-07-28T11:13:41.131Z,1.00
2022-07-28T11:16:36.045Z,1.00
2022-07-28T11:19:36.733Z,1.00
2022-07-28T11:22:35.193Z,1.00
2022-07-28T11:25:24.462Z,1.00
2022-07-28T11:28:14.648Z,1.00
2022-07-28T11:31:03.432Z,1.00
2022-07-28T11:33:59.235Z,1.00
2022-07-28T11:37:03.810Z,1.00
2022-07-28T11:39:52.715Z,1.00
2022-07-28T11:42:42.234Z,1.00
2022-07-28T11:45:38.476Z,1.00
2022-07-28T11:48:29.592Z,1.00
2022-07-28T11:51:18.317Z,1.00
2022-07-28T11:54:17.867Z,1.00
2022-07-28T11:57:09.880Z,1.00
2022-07-28T12:00:02.838Z,1.00
2022-07-28T12:02:53.052Z,1.00
2022-07-28T12:05:43.113Z,1.00
2022-07-28T12:08:51.234Z,1.00
2022-07-28T12:11:41.730Z,1.00
2022-07-28T12:14:30.479Z,1.00
2022-07-28T12:17:19.190Z,1.00
2022-07-28T12:20:15.286Z,1.00
2022-07-28T12:23:07.074Z,1.00
2022-07-28T12:25:55.757Z,1.00
2022-07-28T12:28:51.561Z,1.00
2022-07-28T12:31:42.416Z,1.00
2022-07-28T12:34:32.188Z,1.00
2022-07-28T12:37:23.697Z,1.00
2022-07-28T12:40:14.302Z,1.00
2022-07-28T12:43:03.254Z,1.00
2022-07-28T12:45:52.004Z,1.00
2022-07-28T12:48:41.968Z,1.00
2022-07-28T12:51:35.468Z,1.00
2022-07-28T12:54:37.381Z,1.00
2022-07-28T12:57:48.329Z,1.00
2022-07-28T13:00:38.035Z,1.00
2022-07-28T13:03:28.538Z,1.00
2022-07-28T13:06:17.243Z,1.00
2022-07-28T13:09:06.335Z,1.00
2022-07-28T13:12:14.739Z,1.00
2022-07-28T13:15:06.964Z,1.00
2022-07-28T13:17:57.191Z,1.00
2022-07-28T13:20:50.214Z,1.00
2022-07-28T13:23:39.253Z,1.00
2022-07-28T13:26:27.923Z,1.00
2022-07-28T13:29:18.303Z,1.00
2022-07-28T13:32:08.078Z,1.00
2022-07-28T13:34:57.152Z,1.00
2022-07-28T13:37:45.897Z,1.00
2022-07-28T13:40:34.546Z,1.00
2022-07-28T13:43:23.244Z,1.00
2022-07-28T13:46:26.647Z,1.00
2022-07-28T13:49:18.241Z,1.00
2022-07-28T13:52:13.166Z,1.00
2022-07-28T13:55:04.211Z,1.00
2022-07-28T13:57:53.198Z,1.00
2022-07-28T14:00:41.944Z,1.00
2022-07-28T14:03:50.753Z,1.00
2022-07-28T14:06:41.817Z,1.00
2022-07-28T14:09:30.584Z,1.00
2022-07-28T14:12:19.579Z,1.00
2022-07-28T14:15:11.005Z,1.00
2022-07-28T14:17:59.750Z,1.00
2022-07-28T14:20:49.973Z,1.00
2022-07-28T14:23:38.690Z,1.00
2022-07-28T14:26:36.015Z,1.00
2022-07-28T14:29:26.051Z,1.00
2022-07-28T14:32:15.120Z,1.00
2022-07-28T14:35:03.917Z,1.00
2022-07-28T14:41:02.768Z,1.00
2022-07-28T14:43:51.507Z,1.00
2022-07-28T14:46:40.218Z,1.00
2022-07-28T14:49:29.654Z,1.00
2022-07-28T14:52:18.309Z,1.00
2022-07-28T14:55:09.496Z,1.00
2022-07-28T14:57:58.435Z,1.00
2022-07-28T15:00:47.166Z,1.00
2022-07-28T15:03:36.629Z,1.00
2022-07-28T15:06:26.122Z,1.00
2022-07-28T15:09:14.879Z,1.00
2022-07-28T15:12:05.380Z,1.00
2022-07-28T15:14:54.206Z,1.00
2022-07-28T15:17:42.901Z,1.00
2022-07-28T15:20:31.680Z,1.00
2022-07-28T15:23:20.446Z,1.00
2022-07-28T15:26:09.162Z,1.00
2022-07-28T15:28:59.309Z,1.00
2022-07-28T15:31:48.930Z,1.00
2022-07-28T15:34:37.769Z,1.00
2022-07-28T15:37:26.727Z,1.00
2022-07-28T15:40:15.606Z,1.00
2022-07-28T15:43:04.421Z,1.00
2022-07-28T15:45:56.943Z,1.00
2022-07-28T15:48:46.064Z,1.00
2022-07-28T15:51:35.697Z,1.00
2022-07-28T15:54:24.454Z,1.00
2022-07-28T15:57:14.006Z,1.00
2022-07-28T16:00:02.750Z,1.00
2022-07-28T16:02:54.019Z,1.00
2022-07-28T16:05:44.172Z,1.00
2022-07-28T16:08:32.867Z,1.00
2022-07-28T16:11:21.604Z,1.00
2022-07-28T16:14:10.587Z,1.00
2022-07-28T16:16:59.264Z,1.00
2022-07-28T16:19:51.296Z,1.00
2022-07-28T16:22:41.225Z,1.00
2022-07-28T16:25:31.366Z,1.00
2022-07-28T16:28:20.055Z,1.00
2022-07-28T16:31:09.086Z,1.00
2022-07-28T16:33:57.962Z,1.00
2022-07-28T16:36:48.351Z,1.00
2022-07-28T16:39:37.258Z,1.00
2022-07-28T16:42:26.337Z,1.00
2022-07-28T16:45:15.043Z,1.00
2022-07-28T16:48:04.331Z,1.00
2022-07-28T16:50:53.109Z,1.00
2022-07-28T16:53:43.190Z,1.00
2022-07-28T16:56:31.931Z,1.00
2022-07-28T16:59:20.673Z,1.00
2022-07-28T17:02:09.475Z,1.00
2022-07-28T17:04:58.880Z,1.00
2022-07-28T17:07:47.728Z,1.00
2022-07-28T17:10:38.066Z,1.00
2022-07-28T17:13:26.969Z,1.00
2022-07-28T17:16:15.987Z,1.00
2022-07-28T17:19:05.130Z,1.00
2022-07-28T17:21:53.799Z,1.00
2022-07-28T17:24:42.505Z,1.00
2022-07-28T17:27:37.735Z,1.00
2022-07-28T17:30:30.094Z,1.00
2022-07-28T17:33:19.209Z,1.00
2022-07-28T17:36:08.681Z,1.00
2022-07-28T17:38:57.443Z,1.00
2022-07-28T17:41:46.109Z,1.00
2022-07-28T17:44:36.274Z,1.00
2022-07-28T17:47:36.237Z,1.00
2022-07-28T17:50:25.315Z,1.00
2022-07-28T17:53:14.167Z,1.00
2022-07-28T17:56:03.103Z,1.00
2022-07-28T17:58:55.631Z,1.00
2022-07-28T18:01:45.937Z,1.00
2022-07-28T18:04:34.727Z,1.00
2022-07-28T18:07:23.447Z,1.00
2022-07-28T18:10:12.302Z,1.00
2022-07-28T18:13:01.016Z,1.00
2022-07-28T18:15:50.123Z,1.00
2022-07-28T18:18:40.406Z,1.00
2022-07-28T18:21:29.169Z,1.00
2022-07-28T18:24:18.578Z,1.00
2022-07-28T18:27:07.661Z,1.00
2022-07-28T18:29:56.348Z,1.00
2022-07-28T18:32:45.281Z,1.00
2022-07-28T18:35:35.506Z,1.00
2022-07-28T18:38:26.320Z,1.00
2022-07-28T18:41:15.047Z,1.00
2022-07-28T18:44:03.954Z,1.00
2022-07-28T18:46:52.695Z,1.00
2022-07-28T18:49:41.730Z,1.00
2022-07-28T18:52:31.937Z,1.00
2022-07-28T18:55:20.640Z,1.00
2022-07-28T18:58:09.318Z,1.00
2022-07-28T19:00:58.019Z,1.00
2022-07-28T19:03:47.160Z,1.00
2022-07-28T19:06:37.000Z,1.00
2022-07-28T19:09:27.139Z,1.00
2022-07-28T19:12:16.274Z,1.00
2022-07-28T19:15:06.369Z,1.00
2022-07-28T19:18:10.490Z,1.00
2022-07-28T19:21:00.334Z,1.00
2022-07-28T19:23:49.280Z,1.00
2022-07-28T19:26:39.392Z,1.00
2022-07-28T19:29:28.189Z,1.00
2022-07-28T19:32:16.881Z,1.00
2022-07-28T19:35:06.119Z,1.00
2022-07-28T19:37:56.560Z,1.00
2022-07-28T19:40:45.335Z,1.00
2022-07-28T19:43:36.280Z,1.00
2022-07-28T19:46:26.185Z,1.00
2022-07-28T19:49:16.991Z,1.00
2022-07-28T19:52:06.215Z,1.00
2022-07-28T19:54:55.862Z,1.00
2022-07-28T19:57:45.434Z,1.00
2022-07-28T20:00:35.520Z,1.00
2022-07-28T20:04:02.564Z,1.00
2022-07-28T20:06:33.761Z,1.00
2022-07-28T20:09:22.804Z,1.00
2022-07-28T20:12:11.549Z,1.00
2022-07-28T20:15:00.283Z,1.00
2022-07-28T20:17:50.361Z,1.00
2022-07-28T20:20:39.080Z,1.00
2022-07-28T20:23:27.735Z,1.00
2022-07-28T20:26:17.362Z,1.00
2022-07-28T20:29:12.312Z,1.00
2022-07-28T20:32:01.012Z,1.00
2022-07-28T20:34:51.542Z,1.00
2022-07-28T20:37:40.916Z,1.00
2022-07-28T20:40:29.657Z,1.00
2022-07-28T20:43:18.352Z,1.00
2022-07-28T20:46:07.131Z,1.00
2022-07-28T20:48:55.975Z,1.00
2022-07-28T20:51:50.999Z,1.00
2022-07-28T20:54:40.242Z,1.00
2022-07-28T20:57:29.048Z,1.00
2022-07-28T21:00:18.529Z,1.00
2022-07-28T21:03:07.276Z,1.00
2022-07-28T21:05:55.993Z,1.00
2022-07-28T21:08:46.308Z,1.00
2022-07-28T21:11:37.694Z,1.00
2022-07-28T21:14:26.434Z,1.00
2022-07-28T21:17:15.673Z,1.00
2022-07-28T21:20:04.481Z,1.00
2022-07-28T21:22:53.355Z,1.00
2022-07-28T21:25:45.267Z,1.00
2022-07-28T21:28:51.360Z,1.00
2022-07-28T21:32:02.258Z,1.00
2022-07-28T21:34:48.920Z,1.00
2022-07-28T21:37:37.616Z,1.00
2022-07-28T21:40:26.464Z,1.00
2022-07-28T21:43:16.683Z,1.00
2022-07-28T21:46:05.721Z,1.00
2022-07-28T21:48:56.223Z,1.00
2022-07-28T21:51:47.182Z,1.00
2022-07-28T21:54:35.846Z,1.00
2022-07-28T21:57:25.239Z,1.00
2022-07-28T22:00:17.625Z,1.00
2022-07-28T22:03:06.342Z,1.00
2022-07-28T22:05:58.199Z,1.00
2022-07-28T22:08:50.134Z,1.00
2022-07-28T22:11:38.851Z,1.00
2022-07-28T22:14:32.247Z,1.00
2022-07-28T22:17:22.372Z,1.00
2022-07-28T22:20:12.393Z,1.00
2022-07-28T22:23:01.072Z,1.00
2022-07-28T22:25:49.756Z,1.00
2022-07-28T22:28:39.266Z,1.00
2022-07-28T22:31:28.027Z,1.00
2022-07-28T22:34:18.362Z,1.00
2022-07-28T22:37:12.875Z,1.00
2022-07-28T22:40:01.959Z,1.00
2022-07-28T22:42:50.668Z,1.00
2022-07-28T22:45:50.707Z,1.00
2022-07-28T22:48:40.566Z,1.00
2022-07-28T22:51:30.738Z,1.00
2022-07-28T22:54:19.719Z,1.00
2022-07-28T22:57:08.537Z,1.00
2022-07-28T22:59:57.277Z,1.00
2022-07-28T23:02:45.978Z,1.00
2022-07-28T23:05:35.870Z,1.00
2022-07-28T23:08:26.170Z,1.00
2022-07-28T23:11:15.233Z,1.00
2022-07-28T23:14:03.880Z,1.00
2022-07-28T23:16:52.581Z,1.00
2022-07-28T23:19:41.238Z,1.00
2022-07-28T23:22:30.256Z,1.00
2022-07-28T23:25:20.344Z,1.00
2022-07-28T23:28:09.725Z,1.00
2022-07-28T23:30:58.424Z,1.00
2022-07-28T23:33:55.290Z,1.00
2022-07-28T23:36:48.001Z,1.00
2022-07-28T23:39:36.729Z,1.00
2022-07-28T23:42:26.893Z,1.00
2022-07-28T23:45:15.690Z,1.00
2022-07-28T23:48:04.399Z,1.00
2022-07-28T23:50:53.096Z,1.00
2022-07-28T23:53:42.336Z,5.70
2022-07-28T23:56:31.088Z,35.50
2022-07-28T23:59:21.165Z,59.50
